Time;durP1;ratioP1;P1;durP2;ratioP2;P2;SDS_P1;SDS_P2;PMS_P1;PMS_P2;Temp;Humidity;BMP_temperature;BMP_pressure;BME280_temperature;BME280_humidity;BME280_pressure;Samples;Min_cycle;Max_cycle;Signal;HPM_P1;HPM_P2
2022/11/17 00:00:19;;;;;;;4.40;3.50;;;8.70;83.40;;;;;;5054819;28;20381;-58
2022/11/17 00:02:45;;;;;;;3.88;3.38;;;8.70;83.60;;;;;;5054284;28;20098;-57
2022/11/17 00:05:12;;;;;;;3.47;3.17;;;8.60;83.50;;;;;;5054801;28;20029;-57
2022/11/17 00:07:38;;;;;;;4.53;3.38;;;8.60;83.60;;;;;;5053901;28;20051;-57
2022/11/17 00:10:04;;;;;;;3.83;3.30;;;8.60;83.70;;;;;;5052789;28;20037;-58
2022/11/17 00:15:14;;;;;;;3.90;3.28;;;8.60;83.70;;;;;;5047208;28;20094;-57
2022/11/17 00:17:39;;;;;;;3.15;2.85;;;8.60;83.70;;;;;;5054251;28;20021;-58
2022/11/17 00:23:13;;;;;;;2.85;2.65;;;8.60;83.70;;;;;;5024916;28;20041;-58
2022/11/17 00:25:39;;;;;;;3.20;2.90;;;8.60;83.70;;;;;;5025035;28;20495;-58
2022/11/17 00:28:04;;;;;;;3.20;2.88;;;8.60;83.50;;;;;;5031048;28;20090;-57
2022/11/17 00:35:58;;;;;;;3.25;2.90;;;8.60;83.30;;;;;;5052909;28;20558;-58
2022/11/17 00:38:24;;;;;;;2.80;2.60;;;8.50;83.30;;;;;;5057653;28;20111;-58
2022/11/17 00:40:49;;;;;;;3.20;2.90;;;8.50;83.30;;;;;;5053770;28;20472;-59
2022/11/17 00:43:15;;;;;;;3.17;2.88;;;8.40;83.30;;;;;;5057133;28;20479;-58
2022/11/17 00:45:41;;;;;;;2.78;2.47;;;8.40;83.30;;;;;;5053411;28;20038;-58
2022/11/17 00:48:06;;;;;;;2.85;2.60;;;8.40;83.30;;;;;;5053313;28;20378;-56
2022/11/17 00:50:32;;;;;;;2.90;2.60;;;8.30;83.50;;;;;;5052681;28;20491;-59
2022/11/17 00:52:57;;;;;;;2.90;2.70;;;8.30;84.10;;;;;;5056738;28;20032;-59
2022/11/17 00:55:23;;;;;;;3.30;3.00;;;8.30;83.50;;;;;;5055020;28;20036;-58
2022/11/17 00:57:48;;;;;;;4.25;2.78;;;8.20;83.40;;;;;;5052639;28;20037;-58
2022/11/17 01:00:15;;;;;;;3.10;2.80;;;8.20;83.20;;;;;;5052567;28;20364;-57
2022/11/17 01:02:40;;;;;;;3.10;2.80;;;8.20;83.40;;;;;;5052677;28;20037;-59
2022/11/17 01:05:06;;;;;;;3.08;2.80;;;8.20;83.20;;;;;;5053034;28;20382;-59
2022/11/17 01:07:32;;;;;;;2.72;2.50;;;8.10;83.20;;;;;;5052309;28;20032;-58
2022/11/17 01:09:58;;;;;;;2.53;2.33;;;8.10;83.20;;;;;;5052247;28;20475;-59
2022/11/17 01:12:23;;;;;;;2.83;2.58;;;8.10;83.20;;;;;;5065663;28;20037;-58
2022/11/17 01:14:49;;;;;;;2.25;2.10;;;8.00;83.10;;;;;;5054388;28;20025;-58
2022/11/17 01:17:14;;;;;;;2.40;2.20;;;8.00;83.10;;;;;;5053656;28;20419;-59
2022/11/17 01:19:40;;;;;;;2.70;2.50;;;8.00;83.20;;;;;;5052552;28;20087;-58
2022/11/17 01:22:06;;;;;;;2.60;2.40;;;8.00;83.20;;;;;;5052663;28;20032;-58
2022/11/17 01:24:31;;;;;;;2.90;2.70;;;8.00;83.20;;;;;;5052711;28;20387;-59
2022/11/17 01:26:57;;;;;;;2.95;2.75;;;7.90;83.30;;;;;;5051474;28;20029;-58
2022/11/17 01:29:22;;;;;;;2.80;2.60;;;7.90;83.30;;;;;;5052529;28;20025;-59
2022/11/17 01:31:50;;;;;;;3.13;2.67;;;7.90;83.20;;;;;;5059867;28;20028;-58
2022/11/17 01:34:16;;;;;;;2.50;2.30;;;7.80;83.20;;;;;;5054343;28;20021;-59
2022/11/17 01:39:29;;;;;;;2.97;2.60;;;7.80;83.30;;;;;;5039751;28;20028;-59
2022/11/17 01:41:55;;;;;;;2.92;2.70;;;7.70;83.20;;;;;;5055585;28;20467;-57
2022/11/17 01:44:49;;;;;;;2.60;2.40;;;7.70;83.20;;;;;;5051123;28;20094;-58
2022/11/17 01:47:19;;;;;;;2.72;2.53;;;7.70;83.00;;;;;;5051019;28;20020;-59
2022/11/17 01:49:47;;;;;;;2.97;2.67;;;7.70;83.20;;;;;;5054592;28;20044;-58
2022/11/17 01:52:14;;;;;;;2.72;2.47;;;7.70;83.10;;;;;;5052868;28;20309;-58
2022/11/17 01:54:42;;;;;;;2.40;2.30;;;7.60;83.00;;;;;;5051631;28;20116;-58
2022/11/17 01:57:12;;;;;;;2.88;2.67;;;7.60;83.00;;;;;;5052362;28;20032;-57
2022/11/17 02:00:00;;;;;;;2.50;2.30;;;7.60;83.10;;;;;;5052111;28;20017;-58
2022/11/17 02:02:27;;;;;;;2.75;2.53;;;7.60;83.10;;;;;;5052316;28;20476;-58
2022/11/17 02:05:08;;;;;;;2.25;2.13;;;7.50;83.10;;;;;;5051445;28;20387;-58
2022/11/17 02:07:37;;;;;;;2.70;2.50;;;7.50;83.00;;;;;;5058861;28;20029;-58
2022/11/17 02:10:04;;;;;;;2.45;2.25;;;7.50;82.90;;;;;;5053830;28;20021;-58
2022/11/17 02:12:32;;;;;;;2.40;2.20;;;7.50;82.80;;;;;;5061648;28;20028;-59
2022/11/17 02:14:59;;;;;;;2.45;2.28;;;7.50;82.70;;;;;;5048955;28;20471;-58
2022/11/17 02:17:33;;;;;;;2.40;2.20;;;7.50;82.60;;;;;;5046856;28;20029;-58
2022/11/17 02:20:25;;;;;;;2.15;2.05;;;7.50;82.50;;;;;;5042028;28;20414;-59
2022/11/17 02:22:57;;;;;;;2.40;2.20;;;7.50;82.60;;;;;;5050100;28;20069;-57
2022/11/17 02:25:46;;;;;;;;;;;7.40;82.50;;;;;;5054130;28;20025;-58
2022/11/17 02:28:26;;;;;;;2.15;1.85;;;7.40;82.10;;;;;;5045123;28;19905;-59
2022/11/17 02:31:02;;;;;;;3.47;2.58;;;7.40;82.50;;;;;;5054014;28;20367;-59
2022/11/17 02:33:46;;;;;;;2.60;2.40;;;7.40;82.30;;;;;;5054597;28;20518;-58
2022/11/17 02:36:19;;;;;;;2.63;2.42;;;7.40;82.20;;;;;;5055018;28;20028;-58
2022/11/17 02:38:57;;;;;;;2.60;2.40;;;7.40;82.40;;;;;;5055661;28;20025;-59
2022/11/17 02:41:52;;;;;;;2.50;2.30;;;7.40;82.30;;;;;;5054135;28;20108;-59
2022/11/17 02:44:35;;;;;;;2.80;2.60;;;7.40;82.30;;;;;;5059767;28;20037;-58
2022/11/17 02:47:07;;;;;;;3.17;2.88;;;7.40;82.10;;;;;;5055311;28;20468;-57
2022/11/17 02:49:40;;;;;;;3.33;2.75;;;7.40;82.00;;;;;;5055454;28;20078;-58
2022/11/17 02:52:07;;;;;;;3.28;2.97;;;7.30;82.00;;;;;;5051073;28;20103;-57
2022/11/17 02:54:33;;;;;;;3.28;2.97;;;7.30;81.90;;;;;;5055358;28;20071;-58
2022/11/17 02:56:58;;;;;;;2.85;2.55;;;7.30;81.70;;;;;;5055342;28;20036;-59
2022/11/17 02:59:32;;;;;;;2.88;2.67;;;7.20;81.60;;;;;;5060710;28;20033;-58
2022/11/17 03:02:22;;;;;;;2.75;2.55;;;7.20;81.90;;;;;;5053795;28;20021;-58
2022/11/17 03:05:21;;;;;;;3.13;2.85;;;7.10;81.80;;;;;;5054020;28;20048;-58
2022/11/17 03:08:22;;;;;;;2.80;2.60;;;7.10;81.80;;;;;;5055033;28;20075;-58
2022/11/17 03:10:53;;;;;;;3.30;3.00;;;7.10;81.90;;;;;;5008026;28;20044;-59
2022/11/17 03:13:40;;;;;;;2.95;2.63;;;7.00;82.00;;;;;;5052349;28;20037;-58
2022/11/17 03:16:09;;;;;;;2.83;2.63;;;7.00;81.70;;;;;;5057794;28;20036;-56
2022/11/17 03:18:47;;;;;;;3.15;2.78;;;7.00;81.70;;;;;;5054965;28;20021;-59
2022/11/17 03:21:46;;;;;;;2.65;2.45;;;7.00;81.60;;;;;;5052897;28;20114;-58
2022/11/17 03:24:16;;;;;;;3.03;2.47;;;6.90;81.60;;;;;;5052744;28;20033;-59
2022/11/17 03:26:50;;;;;;;2.80;2.60;;;6.90;81.60;;;;;;5054398;28;20021;-59
2022/11/17 03:29:20;;;;;;;2.60;2.40;;;6.90;81.60;;;;;;5041485;28;20021;-59
2022/11/17 03:31:48;;;;;;;2.47;2.28;;;6.80;81.70;;;;;;5055932;28;20039;-58
2022/11/17 03:34:19;;;;;;;2.70;2.50;;;6.90;81.90;;;;;;5054713;28;20438;-57
2022/11/17 03:36:50;;;;;;;3.05;2.75;;;6.90;81.70;;;;;;5053635;28;20024;-59
2022/11/17 03:39:28;;;;;;;2.83;2.60;;;6.80;81.30;;;;;;5054252;28;20442;-58
2022/11/17 03:41:59;;;;;;;2.63;2.42;;;6.80;81.10;;;;;;5057468;28;20044;-58
2022/11/17 03:44:29;;;;;;;2.97;2.78;;;6.80;81.40;;;;;;5062553;28;20043;-57
2022/11/17 03:46:57;;;;;;;3.05;2.80;;;6.80;81.50;;;;;;5062872;28;20056;-56
2022/11/17 03:49:29;;;;;;;3.45;2.90;;;6.80;81.20;;;;;;5054524;28;20334;-58
2022/11/17 03:51:55;;;;;;;;;;;6.80;81.10;;;;;;5054098;28;20029;-56
2022/11/17 03:54:21;;;;;;;2.58;2.35;;;6.70;80.70;;;;;;5051110;28;19909;-57
2022/11/17 03:56:56;;;;;;;2.63;2.42;;;6.70;81.00;;;;;;5041068;28;20028;-58
2022/11/17 03:59:30;;;;;;;2.22;2.13;;;6.70;81.10;;;;;;5053685;28;20017;-58
2022/11/17 04:01:57;;;;;;;2.03;1.92;;;6.70;81.00;;;;;;5052823;28;20422;-56
2022/11/17 04:04:23;;;;;;;2.20;2.10;;;6.60;81.00;;;;;;5056491;28;20071;-59
2022/11/17 04:06:51;;;;;;;2.67;2.47;;;6.70;81.00;;;;;;5054164;28;20029;-57
2022/11/17 04:09:17;;;;;;;2.67;2.47;;;6.70;80.90;;;;;;5054060;28;20039;-58
2022/11/17 04:17:11;;;;;;;2.47;2.28;;;6.60;80.90;;;;;;5053270;28;20408;-58
2022/11/17 04:19:36;;;;;;;3.15;2.70;;;6.60;80.80;;;;;;5055582;28;20033;-58
2022/11/17 04:22:02;;;;;;;2.67;2.47;;;6.60;80.80;;;;;;5052723;28;20029;-59
2022/11/17 04:24:28;;;;;;;2.50;2.30;;;6.60;80.50;;;;;;5053165;28;20029;-59
2022/11/17 04:29:38;;;;;;;2.70;2.50;;;6.50;80.40;;;;;;5053774;28;20490;-58
2022/11/17 04:32:03;;;;;;;2.65;2.35;;;6.50;80.40;;;;;;5053130;28;20111;-58
2022/11/17 04:34:29;;;;;;;2.38;2.20;;;6.50;80.50;;;;;;5053523;28;20073;-57
2022/11/17 04:36:54;;;;;;;2.90;2.63;;;6.50;80.50;;;;;;5054153;28;20440;-57
2022/11/17 04:39:20;;;;;;;2.70;2.50;;;6.50;80.50;;;;;;5053226;28;20168;-56
2022/11/17 04:42:02;;;;;;;2.38;2.17;;;6.50;80.50;;;;;;5052298;28;20511;-58
2022/11/17 04:44:28;;;;;;;;;;;6.50;80.60;;;;;;5053515;28;20401;-58
2022/11/17 04:46:55;;;;;;;2.60;2.40;;;6.40;80.20;;;;;;5052693;28;19966;-58
2022/11/17 04:49:23;;;;;;;2.70;2.50;;;6.50;80.50;;;;;;5052338;28;20020;-58
2022/11/17 04:51:49;;;;;;;2.85;2.58;;;6.40;80.30;;;;;;5055670;28;20020;-57
2022/11/17 04:54:17;;;;;;;2.70;2.47;;;6.40;80.30;;;;;;5060379;28;20369;-57
2022/11/17 04:56:43;;;;;;;2.83;2.63;;;6.40;80.40;;;;;;5052831;28;20036;-58
2022/11/17 04:59:09;;;;;;;2.97;2.72;;;6.40;80.50;;;;;;5052673;28;20028;-57
2022/11/17 05:01:35;;;;;;;3.08;2.83;;;6.40;80.40;;;;;;5051842;28;20464;-57
2022/11/17 05:04:03;;;;;;;3.35;3.05;;;6.40;80.20;;;;;;5051867;28;20063;-58
2022/11/17 05:06:35;;;;;;;3.42;3.13;;;6.40;80.20;;;;;;5052529;28;20086;-59
2022/11/17 05:09:21;;;;;;;3.67;3.38;;;6.40;80.30;;;;;;5052716;28;20056;-58
2022/11/17 05:14:31;;;;;;;3.60;3.30;;;6.30;80.10;;;;;;5051349;28;20031;-58
2022/11/17 05:17:07;;;;;;;3.10;2.83;;;6.30;80.10;;;;;;5052431;28;20021;-57
2022/11/17 05:19:43;;;;;;;2.70;2.50;;;6.20;79.90;;;;;;5052819;28;20094;-57
2022/11/17 05:24:55;;;;;;;3.58;2.97;;;6.20;80.00;;;;;;5052382;28;20482;-58
2022/11/17 05:27:22;;;;;;;4.13;3.35;;;6.20;80.10;;;;;;5053152;28;20013;-58
2022/11/17 05:29:48;;;;;;;4.47;3.35;;;6.20;80.00;;;;;;5052313;28;20463;-55
2022/11/17 05:32:13;;;;;;;4.40;3.80;;;6.20;79.90;;;;;;5050943;28;20060;-60
2022/11/17 05:34:39;;;;;;;4.40;3.28;;;6.20;79.90;;;;;;5050061;28;20044;-57
2022/11/17 05:37:05;;;;;;;4.82;3.78;;;6.10;79.60;;;;;;5056913;28;20036;-57
2022/11/17 05:39:30;;;;;;;4.63;3.67;;;6.10;79.60;;;;;;5055570;28;20036;-59
2022/11/17 05:41:56;;;;;;;4.00;3.40;;;6.00;79.60;;;;;;5043049;28;20032;-57
2022/11/17 05:44:22;;;;;;;4.80;4.18;;;6.00;79.50;;;;;;5048406;28;20409;-57
2022/11/17 05:46:47;;;;;;;3.22;2.90;;;6.00;79.60;;;;;;5048482;28;20055;-57
2022/11/17 05:49:13;;;;;;;3.95;3.40;;;6.00;79.70;;;;;;5055938;28;20033;-56
2022/11/17 05:51:38;;;;;;;3.47;3.17;;;6.00;79.80;;;;;;5049176;28;20044;-56
2022/11/17 05:54:04;;;;;;;4.18;3.58;;;6.00;79.70;;;;;;5055974;28;20112;-57
2022/11/17 05:56:42;;;;;;;4.13;3.70;;;6.00;79.60;;;;;;5051703;28;20078;-59
2022/11/17 05:59:14;;;;;;;4.15;3.58;;;6.00;79.60;;;;;;5042268;28;20369;-57
2022/11/17 06:01:42;;;;;;;;;;;6.00;79.80;;;;;;5039547;28;20021;-56
2022/11/17 06:04:08;;;;;;;4.15;3.35;;;5.90;79.50;;;;;;5048281;28;19932;-57
2022/11/17 06:06:36;;;;;;;5.28;4.43;;;5.90;79.70;;;;;;5051465;28;20387;-56
2022/11/17 06:09:02;;;;;;;5.22;3.95;;;5.90;79.50;;;;;;5048987;28;20119;-59
2022/11/17 06:11:28;;;;;;;4.35;3.95;;;5.90;79.40;;;;;;5044375;28;20340;-57
2022/11/17 06:13:53;;;;;;;4.43;3.78;;;5.90;79.50;;;;;;5047882;28;20615;-56
2022/11/17 06:16:24;;;;;;;4.95;4.00;;;5.90;79.20;;;;;;5052053;28;20025;-59
2022/11/17 06:18:55;;;;;;;4.43;3.72;;;5.80;79.30;;;;;;5047579;28;20060;-57
2022/11/17 06:21:21;;;;;;;4.45;3.50;;;5.80;79.30;;;;;;5039007;28;20028;-56
2022/11/17 06:23:47;;;;;;;3.63;3.33;;;5.80;79.10;;;;;;5039839;28;20025;-55
2022/11/17 06:26:14;;;;;;;5.20;4.28;;;5.80;79.10;;;;;;5038555;28;20492;-56
2022/11/17 06:28:42;;;;;;;5.03;3.95;;;5.80;79.10;;;;;;5047239;28;20032;-56
2022/11/17 06:31:08;;;;;;;5.38;4.68;;;5.80;79.10;;;;;;5038453;28;20044;-57
2022/11/17 06:33:35;;;;;;;4.88;4.13;;;5.80;79.20;;;;;;5052399;28;20033;-57
2022/11/17 06:36:03;;;;;;;4.32;3.92;;;5.80;79.30;;;;;;5039435;28;20027;-58
2022/11/17 06:38:30;;;;;;;5.53;4.75;;;5.80;79.30;;;;;;5041669;28;20040;-57
2022/11/17 06:40:56;;;;;;;5.10;4.43;;;5.70;79.50;;;;;;5043559;28;20553;-56
2022/11/17 06:43:22;;;;;;;5.47;4.65;;;5.70;79.50;;;;;;5040858;28;20052;-56
2022/11/17 06:45:47;;;;;;;5.43;4.57;;;5.70;79.50;;;;;;5037019;28;20032;-56
2022/11/17 06:48:15;;;;;;;5.20;4.70;;;5.70;79.40;;;;;;5030462;28;20899;-55
2022/11/17 06:50:42;;;;;;;5.93;4.75;;;5.70;79.30;;;;;;5033838;28;20033;-56
2022/11/17 06:53:10;;;;;;;5.97;4.50;;;5.70;79.30;;;;;;5036920;28;20032;-55
2022/11/17 06:55:36;;;;;;;5.15;4.25;;;5.60;79.30;;;;;;5030828;28;20028;-56
2022/11/17 06:58:05;;;;;;;5.82;4.63;;;5.60;79.70;;;;;;5041408;28;20026;-55
2022/11/17 07:00:31;;;;;;;4.57;4.03;;;5.70;80.40;;;;;;5031662;28;20032;-57
2022/11/17 07:03:05;;;;;;;5.85;4.63;;;5.70;79.60;;;;;;5037917;28;20025;-56
2022/11/17 07:05:33;;;;;;;5.65;4.53;;;5.70;79.50;;;;;;5036771;28;20048;-57
2022/11/17 07:08:00;;;;;;;5.70;4.63;;;5.70;79.40;;;;;;5036532;28;20546;-57
2022/11/17 07:10:28;;;;;;;4.97;4.47;;;5.80;79.10;;;;;;5030644;28;20032;-57
2022/11/17 07:12:53;;;;;;;4.75;4.25;;;5.70;79.00;;;;;;5037776;28;20037;-57
2022/11/17 07:15:20;;;;;;;6.07;4.25;;;5.70;79.00;;;;;;5035789;28;20044;-57
2022/11/17 07:17:46;;;;;;;5.40;4.25;;;5.70;79.10;;;;;;5037463;28;20060;-55
2022/11/17 07:20:12;;;;;;;5.30;4.13;;;5.80;79.10;;;;;;5038959;28;20432;-57
2022/11/17 07:22:37;;;;;;;5.90;4.90;;;5.80;78.90;;;;;;5039295;28;20025;-56
2022/11/17 07:25:04;;;;;;;5.40;4.70;;;5.80;78.80;;;;;;5038456;28;20041;-58
2022/11/17 07:27:30;;;;;;;6.28;4.82;;;5.80;78.60;;;;;;5035483;28;20040;-55
2022/11/17 07:29:56;;;;;;;6.28;5.28;;;5.80;78.60;;;;;;5033610;28;20021;-55
2022/11/17 07:32:22;;;;;;;5.80;4.95;;;5.70;78.60;;;;;;5034877;28;20774;-57
2022/11/17 07:34:49;;;;;;;5.63;4.78;;;5.70;78.40;;;;;;5034158;28;20044;-57
2022/11/17 07:37:14;;;;;;;5.63;5.05;;;5.70;78.50;;;;;;5032210;28;20040;-57
2022/11/17 07:39:40;;;;;;;7.18;5.55;;;5.60;78.80;;;;;;5032029;28;20041;-55
2022/11/17 07:42:06;;;;;;;6.18;5.50;;;5.60;78.70;;;;;;5033139;28;20032;-57
2022/11/17 07:44:31;;;;;;;5.97;4.78;;;5.60;78.80;;;;;;5038024;28;20749;-56
2022/11/17 07:46:57;;;;;;;6.20;4.85;;;5.60;78.70;;;;;;5033126;28;20033;-56
2022/11/17 07:49:23;;;;;;;6.10;4.60;;;5.60;78.80;;;;;;5037080;28;20083;-57
2022/11/17 07:51:49;;;;;;;6.47;4.63;;;5.60;78.60;;;;;;5038996;28;20056;-57
2022/11/17 07:54:14;;;;;;;6.47;5.30;;;5.60;78.50;;;;;;5032499;28;20040;-57
2022/11/17 07:56:40;;;;;;;6.95;5.50;;;5.60;78.40;;;;;;5029186;28;20088;-57
2022/11/17 07:59:05;;;;;;;5.97;5.03;;;5.50;78.20;;;;;;5040363;28;20096;-56
2022/11/17 08:01:31;;;;;;;6.43;5.40;;;5.50;78.30;;;;;;5031274;28;22503;-58
2022/11/17 08:03:57;;;;;;;7.13;5.55;;;5.50;78.40;;;;;;5026209;28;20049;-57
2022/11/17 08:06:23;;;;;;;6.00;4.70;;;5.50;78.30;;;;;;5027864;28;20033;-57
2022/11/17 08:08:49;;;;;;;7.70;5.80;;;5.60;78.40;;;;;;5036449;28;20029;-58
2022/11/17 08:11:16;;;;;;;5.95;4.80;;;5.60;78.30;;;;;;5034687;28;20079;-59
2022/11/17 08:13:42;;;;;;;6.82;5.50;;;5.60;78.00;;;;;;5036928;28;20040;-58
2022/11/17 08:16:09;;;;;;;7.32;5.75;;;5.60;77.80;;;;;;5031873;28;20048;-58
2022/11/17 08:18:35;;;;;;;7.53;5.85;;;5.60;77.90;;;;;;5031385;28;20041;-57
2022/11/17 08:21:06;;;;;;;7.78;6.28;;;5.60;77.90;;;;;;5034100;28;20595;-58
2022/11/17 08:23:33;;;;;;;7.45;5.82;;;5.50;78.00;;;;;;5031394;28;20722;-58
2022/11/17 08:26:00;;;;;;;7.15;5.90;;;5.50;78.10;;;;;;5033467;28;20032;-55
2022/11/17 08:28:25;;;;;;;7.65;6.00;;;5.50;78.20;;;;;;5031350;28;20048;-56
2022/11/17 08:30:51;;;;;;;6.78;5.00;;;5.50;78.00;;;;;;5038040;28;20785;-59
2022/11/17 08:33:17;;;;;;;6.20;5.22;;;5.50;78.00;;;;;;5042279;28;21679;-58
2022/11/17 08:35:43;;;;;;;6.28;5.22;;;5.60;78.00;;;;;;5037208;28;20088;-57
2022/11/17 08:38:14;;;;;;;6.75;5.40;;;5.60;77.90;;;;;;5035317;28;20037;-57
2022/11/17 08:40:40;;;;;;;6.72;5.00;;;5.60;77.80;;;;;;5039845;28;20497;-59
2022/11/17 08:43:06;;;;;;;7.13;5.72;;;5.60;77.80;;;;;;5034267;28;20140;-60
2022/11/17 08:45:32;;;;;;;6.97;5.65;;;5.70;77.70;;;;;;5034314;28;20234;-60
2022/11/17 08:47:58;;;;;;;8.15;6.35;;;5.70;77.60;;;;;;5035315;28;20426;-59
2022/11/17 08:50:24;;;;;;;7.25;5.82;;;5.60;77.50;;;;;;5024423;28;20079;-57
2022/11/17 08:52:51;;;;;;;7.28;6.00;;;5.60;77.40;;;;;;5026680;28;20043;-59
2022/11/17 08:55:17;;;;;;;7.03;5.68;;;5.60;77.60;;;;;;5026707;28;20052;-60
2022/11/17 08:57:43;;;;;;;7.72;5.85;;;5.60;77.50;;;;;;5015897;28;20033;-58
2022/11/17 09:00:09;;;;;;;6.40;5.43;;;5.60;77.70;;;;;;5010400;28;20036;-59
2022/11/17 09:02:36;;;;;;;7.15;5.97;;;5.60;77.70;;;;;;5003321;28;20489;-59
2022/11/17 09:05:02;;;;;;;8.98;6.43;;;5.60;77.60;;;;;;5020301;28;20047;-58
2022/11/17 09:07:32;;;;;;;7.57;6.28;;;5.60;77.30;;;;;;5001442;28;20159;-60
2022/11/17 09:09:59;;;;;;;7.47;5.93;;;5.60;77.20;;;;;;5022368;28;20021;-56
2022/11/17 09:12:24;;;;;;;7.00;5.88;;;5.50;77.10;;;;;;5031197;28;20048;-57
2022/11/17 09:14:50;;;;;;;7.95;5.60;;;5.50;77.20;;;;;;5020230;28;20032;-58
2022/11/17 09:17:16;;;;;;;8.65;6.38;;;5.50;77.20;;;;;;5027262;28;20395;-58
2022/11/17 09:19:41;;;;;;;7.88;6.68;;;5.50;77.10;;;;;;5022709;28;20060;-58
2022/11/17 09:22:07;;;;;;;7.28;5.85;;;5.50;77.10;;;;;;5023321;28;20459;-58
2022/11/17 09:24:33;;;;;;;6.85;5.13;;;5.40;77.10;;;;;;5027683;28;20118;-57
2022/11/17 09:26:58;;;;;;;6.95;5.32;;;5.40;77.10;;;;;;5027394;28;20071;-60
2022/11/17 09:29:24;;;;;;;6.30;4.88;;;5.40;77.10;;;;;;5013389;28;20048;-58
2022/11/17 09:31:54;;;;;;;7.65;6.15;;;5.40;77.10;;;;;;5014737;28;21242;-59
2022/11/17 09:34:20;;;;;;;7.70;5.75;;;5.40;77.10;;;;;;5020346;28;20083;-57
2022/11/17 09:36:47;;;;;;;8.90;7.00;;;5.40;76.90;;;;;;5026996;28;20094;-58
2022/11/17 09:39:14;;;;;;;8.90;7.15;;;5.40;77.00;;;;;;5019507;28;20182;-59
2022/11/17 09:41:48;;;;;;;6.65;5.15;;;5.40;76.80;;;;;;5018643;28;21003;-59
2022/11/17 09:44:16;;;;;;;6.60;5.22;;;5.40;77.40;;;;;;5014741;28;20052;-61
2022/11/17 09:46:49;;;;;;;6.07;5.25;;;5.40;77.20;;;;;;5017753;28;20028;-59
2022/11/17 09:49:23;;;;;;;6.70;5.30;;;5.40;77.20;;;;;;5026969;28;20017;-59
2022/11/17 09:51:49;;;;;;;7.65;6.32;;;5.40;77.20;;;;;;5023034;28;20104;-57
2022/11/17 09:54:48;;;;;;;7.53;5.57;;;5.40;77.10;;;;;;5027674;28;20037;-58
2022/11/17 09:57:22;;;;;;;7.03;5.47;;;5.40;77.00;;;;;;5023804;28;20063;-57
2022/11/17 10:00:14;;;;;;;7.68;6.40;;;5.50;77.10;;;;;;5017764;28;20750;-57
2022/11/17 12:08:43;;;;;;;6.50;4.70;;;4.80;75.20;;;;;;5056341;27;20518;-56
2022/11/17 12:13:59;;;;;;;8.10;5.97;;;4.80;76.00;;;;;;5036509;28;20039;-57
2022/11/17 12:16:29;;;;;;;8.95;6.22;;;4.80;76.60;;;;;;5034248;28;20017;-58
2022/11/17 12:18:55;;;;;;;7.68;5.90;;;4.90;77.10;;;;;;5040704;28;20033;-55
2022/11/17 12:21:25;;;;;;;6.80;5.30;;;4.90;77.70;;;;;;5041204;28;20038;-59
2022/11/17 12:24:16;;;;;;;6.93;5.70;;;5.00;78.00;;;;;;5032308;28;20075;-57
2022/11/17 12:26:42;;;;;;;7.60;6.00;;;5.00;78.20;;;;;;5033696;28;20638;-58
2022/11/17 12:29:20;;;;;;;8.98;6.93;;;5.10;78.20;;;;;;5036434;28;20036;-57
2022/11/17 12:31:54;;;;;;;8.63;6.82;;;5.10;77.90;;;;;;5038364;28;20021;-57
2022/11/17 12:34:30;;;;;;;9.77;7.30;;;5.10;78.00;;;;;;5038150;28;20443;-58
2022/11/17 12:37:26;;;;;;;9.07;7.38;;;5.10;78.10;;;;;;5031560;28;21003;-58
2022/11/17 12:39:58;;;;;;;7.68;6.30;;;5.10;77.70;;;;;;5035413;28;20078;-60
2022/11/17 12:42:24;;;;;;;7.65;5.75;;;5.10;77.90;;;;;;5039191;28;20033;-59
2022/11/17 12:44:57;;;;;;;6.93;5.55;;;5.10;78.10;;;;;;5037001;28;20059;-57
2022/11/17 12:47:38;;;;;;;8.02;6.70;;;5.10;78.10;;;;;;5033302;28;21414;-58
2022/11/17 12:50:16;;;;;;;8.57;6.35;;;5.10;78.10;;;;;;5036694;28;20873;-58
2022/11/17 12:53:06;;;;;;;8.88;6.70;;;5.10;77.90;;;;;;5039607;28;20033;-60
2022/11/17 12:55:54;;;;;;;6.05;4.88;;;5.10;77.90;;;;;;5035919;28;20136;-60
2022/11/17 12:58:50;;;;;;;7.00;5.70;;;5.10;78.00;;;;;;5028511;28;20036;-59
2022/11/17 13:01:38;;;;;;;7.03;5.60;;;5.10;78.00;;;;;;5028440;28;20060;-58
2022/11/17 13:04:15;;;;;;;8.07;6.22;;;5.20;78.00;;;;;;5028186;28;20911;-58
2022/11/17 13:07:06;;;;;;;8.75;5.95;;;5.20;77.70;;;;;;5027613;28;20045;-59
2022/11/17 13:09:33;;;;;;;7.47;6.15;;;5.20;77.70;;;;;;5031796;28;20388;-57
2022/11/17 13:12:07;;;;;;;9.30;7.35;;;5.20;77.50;;;;;;5036070;28;20140;-59
2022/11/17 13:14:35;;;;;;;7.10;5.43;;;5.20;77.10;;;;;;5037667;28;20056;-60
2022/11/17 13:17:01;;;;;;;7.95;5.90;;;5.20;77.00;;;;;;5040003;28;20077;-59
2022/11/17 13:19:40;;;;;;;7.25;5.80;;;5.10;76.90;;;;;;5022295;28;20037;-59
2022/11/17 13:22:13;;;;;;;9.18;6.97;;;5.10;76.90;;;;;;5021663;28;20370;-58
2022/11/17 13:24:49;;;;;;;7.60;5.97;;;5.10;76.90;;;;;;5030478;28;20029;-57
2022/11/17 13:27:27;;;;;;;9.02;7.22;;;5.00;76.90;;;;;;5022777;28;20406;-56
2022/11/17 13:30:13;;;;;;;8.38;6.95;;;5.00;77.10;;;;;;5030232;28;20037;-62
2022/11/17 13:32:40;;;;;;;8.90;7.18;;;5.00;77.00;;;;;;5020640;28;20094;-59
2022/11/17 13:35:24;;;;;;;8.05;7.13;;;5.00;77.00;;;;;;5028624;28;20016;-58
2022/11/17 13:38:19;;;;;;;7.72;6.30;;;5.00;77.10;;;;;;5021536;28;20029;-60
2022/11/17 13:40:47;;;;;;;6.90;5.20;;;4.90;76.90;;;;;;5026460;28;20025;-58
2022/11/17 13:43:18;;;;;;;7.30;5.32;;;4.90;77.20;;;;;;5031097;28;20103;-57
2022/11/17 13:45:45;;;;;;;6.68;4.90;;;4.90;77.30;;;;;;5024177;28;20032;-58
2022/11/17 13:48:34;;;;;;;6.53;5.07;;;4.90;77.10;;;;;;5032390;28;20420;-59
2022/11/17 13:51:19;;;;;;;5.60;4.20;;;5.00;77.10;;;;;;5023128;28;20033;-58
2022/11/17 13:53:47;;;;;;;6.15;4.50;;;5.00;77.10;;;;;;5023009;28;20055;-58
2022/11/17 13:56:25;;;;;;;8.32;6.28;;;5.00;76.90;;;;;;5022033;28;20583;-59
2022/11/17 13:58:52;;;;;;;6.65;5.40;;;5.10;76.70;;;;;;5024239;28;20041;-58
2022/11/17 14:01:24;;;;;;;6.78;5.22;;;5.00;76.10;;;;;;5009855;28;21019;-57
2022/11/17 14:03:50;;;;;;;;;;;5.00;76.70;;;;;;5018399;28;20044;-58
2022/11/17 14:06:16;;;;;;;6.72;5.13;;;5.00;76.30;;;;;;5029448;28;20024;-59
2022/11/17 14:09:00;;;;;;;9.35;6.82;;;4.90;76.50;;;;;;5025987;28;20693;-60
2022/11/17 14:11:26;;;;;;;6.85;5.80;;;4.90;77.30;;;;;;5022863;28;20594;-58
2022/11/17 14:13:57;;;;;;;6.93;5.25;;;4.80;76.80;;;;;;5029573;28;20079;-58
2022/11/17 14:16:40;;;;;;;6.47;4.88;;;4.80;76.80;;;;;;5035091;28;20238;-58
2022/11/17 14:19:15;;;;;;;6.95;5.40;;;4.90;76.80;;;;;;5033384;28;20040;-59
2022/11/17 14:22:16;;;;;;;7.00;4.80;;;4.90;76.70;;;;;;5030634;28;20052;-60
2022/11/17 14:24:41;;;;;;;7.43;5.32;;;4.90;76.30;;;;;;4945293;28;20498;-58
2022/11/17 14:27:36;;;;;;;5.93;4.97;;;4.90;76.50;;;;;;5001016;28;20049;-60
2022/11/17 14:30:05;;;;;;;7.35;5.90;;;4.80;76.40;;;;;;5028154;28;20126;-58
2022/11/17 14:32:31;;;;;;;7.10;5.95;;;4.80;76.50;;;;;;5027058;28;20029;-58
2022/11/17 14:34:57;;;;;;;7.45;6.03;;;4.80;76.30;;;;;;5034453;28;20040;-58
2022/11/17 14:37:24;;;;;;;7.35;5.80;;;4.80;76.20;;;;;;5028702;28;20036;-58
2022/11/17 14:39:50;;;;;;;8.77;6.57;;;4.90;76.40;;;;;;5027582;28;20637;-58
2022/11/17 14:42:15;;;;;;;7.25;6.07;;;4.80;76.10;;;;;;5033495;28;20052;-58
2022/11/17 14:44:41;;;;;;;7.25;5.70;;;4.90;75.90;;;;;;5020069;28;20029;-57
2022/11/17 14:47:07;;;;;;;7.22;5.70;;;4.80;75.80;;;;;;5017800;28;20124;-58
2022/11/17 14:49:32;;;;;;;7.20;5.28;;;4.80;75.90;;;;;;5025463;28;20026;-56
2022/11/17 14:51:58;;;;;;;8.27;6.80;;;4.80;75.80;;;;;;5023513;28;23344;-58
2022/11/17 14:54:24;;;;;;;8.68;6.95;;;4.90;75.70;;;;;;5030007;28;20029;-58
2022/11/17 14:56:50;;;;;;;7.45;6.03;;;4.80;75.80;;;;;;5022612;28;20050;-56
2022/11/17 14:59:16;;;;;;;9.85;7.00;;;4.80;75.90;;;;;;5026072;28;20041;-56
2022/11/17 15:01:41;;;;;;;8.75;7.00;;;4.80;76.00;;;;;;5017703;28;20033;-59
2022/11/17 15:04:12;;;;;;;7.90;6.60;;;4.80;75.80;;;;;;5022270;28;22326;-58
2022/11/17 15:06:38;;;;;;;8.57;6.57;;;4.70;75.90;;;;;;5019105;28;21387;-58
2022/11/17 15:09:06;;;;;;;7.20;6.20;;;4.70;76.10;;;;;;5028121;28;20033;-57
2022/11/17 18:05:24;;;;;;;11.00;8.82;;;3.20;79.80;;;;;;5040445;28;20912;-56
2022/11/17 18:07:50;;;;;;;8.30;6.68;;;3.20;78.80;;;;;;5040906;28;20151;-57
2022/11/17 18:10:16;;;;;;;9.32;6.90;;;3.20;79.70;;;;;;5040839;28;20018;-57
2022/11/17 18:12:41;;;;;;;7.20;5.53;;;3.20;80.50;;;;;;5043610;28;20045;-58
2022/11/17 18:15:08;;;;;;;9.25;6.97;;;3.20;81.10;;;;;;5045737;28;20087;-56
2022/11/17 18:17:34;;;;;;;8.95;7.00;;;3.30;81.70;;;;;;5042458;28;20030;-56
2022/11/17 18:19:59;;;;;;;7.75;6.38;;;3.30;82.00;;;;;;5044556;28;20025;-56
2022/11/17 18:22:25;;;;;;;10.50;7.90;;;3.40;82.30;;;;;;5049725;28;20025;-56
2022/11/17 18:24:51;;;;;;;7.72;6.45;;;3.40;82.40;;;;;;5042515;28;20025;-57
2022/11/17 18:27:16;;;;;;;9.93;7.95;;;3.40;82.50;;;;;;5039250;28;20022;-57
2022/11/17 18:29:42;;;;;;;9.40;7.40;;;3.40;82.40;;;;;;5043783;28;20488;-57
2022/11/17 18:32:07;;;;;;;9.35;6.38;;;3.40;82.50;;;;;;5044674;28;20022;-55
2022/11/17 18:34:33;;;;;;;10.77;7.70;;;3.50;82.60;;;;;;5045930;28;20029;-57
2022/11/17 18:36:59;;;;;;;9.02;7.03;;;3.50;82.80;;;;;;5048541;28;20036;-57
2022/11/17 18:39:27;;;;;;;10.07;7.88;;;3.60;82.60;;;;;;5046313;28;20567;-57
2022/11/17 18:41:52;;;;;;;8.90;6.93;;;3.60;82.60;;;;;;5045316;28;20025;-57